Time;durP1;ratioP1;P1;durP2;ratioP2;P2;SDS_P1;SDS_P2;PMS_P1;PMS_P2;Temp;Humidity;BMP_temperature;BMP_pressure;BME280_temperature;BME280_humidity;BME280_pressure;Samples;Min_cycle;Max_cycle;Signal;HPM_P1;HPM_P2
2024/01/06 00:02:06;;;;;;;141.05;67.30;;;;;;;2.64;100.00;98576.53;5037599;28;20513;-92
2024/01/06 00:04:32;;;;;;;153.60;67.18;;;;;;;2.60;100.00;98578.34;5037563;28;20029;-92
2024/01/06 00:06:57;;;;;;;107.75;53.40;;;;;;;2.60;100.00;98591.19;5037998;28;20033;-94
2024/01/06 00:09:23;;;;;;;91.68;46.92;;;;;;;2.39;100.00;98550.75;5054081;28;20033;-93
2024/01/06 00:11:49;;;;;;;99.35;48.72;;;;;;;2.51;100.00;98583.78;5054206;28;20029;-93
2024/01/06 00:14:14;;;;;;;108.72;52.22;;;;;;;2.52;100.00;98582.03;5037612;28;20021;-92
2024/01/06 00:16:40;;;;;;;137.02;61.10;;;;;;;2.44;100.00;98564.28;5054023;28;20027;-92
2024/01/06 00:19:05;;;;;;;104.32;52.05;;;;;;;2.48;100.00;98582.13;5037641;28;20037;-93
2024/01/06 00:21:31;;;;;;;121.45;58.78;;;;;;;2.48;100.00;98587.28;5037725;28;20025;-93
2024/01/06 00:23:57;;;;;;;110.03;61.80;;;;;;;2.58;100.00;98594.72;5037773;28;20036;-93
2024/01/06 00:26:24;;;;;;;93.30;49.55;;;;;;;2.65;100.00;98599.59;5037530;28;20460;-93
2024/01/06 00:28:49;;;;;;;73.28;41.38;;;;;;;2.70;100.00;98595.19;5037393;28;20111;-93
2024/01/06 00:31:17;;;;;;;71.97;40.95;;;;;;;2.66;100.00;98579.91;5037540;28;20117;-92
2024/01/06 00:33:43;;;;;;;80.28;43.20;;;;;;;2.77;100.00;98593.22;5055094;28;20603;-92
2024/01/06 00:36:09;;;;;;;128.07;54.35;;;;;;;2.78;100.00;98600.06;5055078;28;20119;-94
2024/01/06 00:38:35;;;;;;;168.45;69.47;;;;;;;2.80;100.00;98607.72;5055001;28;20032;-93
2024/01/06 00:41:01;;;;;;;74.53;44.10;;;;;;;2.84;100.00;98599.88;5055053;28;20021;-93
2024/01/06 00:43:26;;;;;;;69.68;42.50;;;;;;;2.89;100.00;98597.16;5054759;28;20021;-92
2024/01/06 00:45:52;;;;;;;81.18;46.42;;;;;;;2.94;100.00;98606.38;5055060;28;20021;-92
2024/01/06 00:48:18;;;;;;;79.97;44.65;;;;;;;2.88;100.00;98591.16;5054962;28;20021;-93
2024/01/06 00:50:44;;;;;;;82.63;45.88;;;;;;;2.96;100.00;98612.34;5054800;28;20025;-92
2024/01/06 00:53:11;;;;;;;81.10;46.35;;;;;;;2.98;100.00;98600.25;5054663;28;20020;-93
2024/01/06 00:55:37;;;;;;;80.78;44.53;;;;;;;2.98;100.00;98605.41;5054380;28;20079;-92
2024/01/06 00:58:03;;;;;;;70.72;41.75;;;;;;;3.00;100.00;98610.50;5054582;28;20029;-93
2024/01/06 01:00:28;;;;;;;71.32;40.25;;;;;;;2.94;100.00;98611.53;5054592;28;20032;-93
2024/01/06 01:02:54;;;;;;;77.30;41.95;;;;;;;2.90;100.00;98609.94;5054361;28;20084;-94
2024/01/06 01:05:20;;;;;;;73.05;41.78;;;;;;;2.82;100.00;98614.50;5054478;28;20048;-91
2024/01/06 01:07:45;;;;;;;72.28;43.65;;;;;;;2.84;100.00;98622.19;5054270;28;20020;-92
2024/01/06 01:10:11;;;;;;;72.22;42.90;;;;;;;2.81;100.00;98622.25;5054597;28;20029;-92
2024/01/06 01:12:37;;;;;;;72.47;42.25;;;;;;;2.77;100.00;98625.81;5054217;28;20024;-92
2024/01/06 01:15:03;;;;;;;72.97;40.78;;;;;;;2.72;100.00;98619.09;5054398;28;20031;-92
2024/01/06 01:17:29;;;;;;;72.32;40.92;;;;;;;2.71;100.00;98621.72;5054201;28;20368;-92
2024/01/06 01:19:55;;;;;;;116.40;52.42;;;;;;;2.64;100.00;98615.09;5054250;28;20364;-91
2024/01/06 01:22:21;;;;;;;102.90;47.55;;;;;;;2.63;100.00;98616.81;5054213;28;20032;-91
2024/01/06 01:24:46;;;;;;;87.25;46.97;;;;;;;2.66;100.00;98613.31;5054124;28;20025;-92
2024/01/06 01:27:12;;;;;;;74.55;41.13;;;;;;;2.64;100.00;98613.34;5054262;28;20025;-92
2024/01/06 01:29:38;;;;;;;67.60;38.65;;;;;;;2.40;100.00;98594.41;5053638;28;20021;-92
2024/01/06 01:32:04;;;;;;;63.20;36.33;;;;;;;2.44;100.00;98618.25;5054185;28;20438;-93
2024/01/06 01:34:30;;;;;;;67.75;37.88;;;;;;;2.44;100.00;98613.97;5053910;28;20086;-92
2024/01/06 01:36:55;;;;;;;72.93;38.30;;;;;;;2.47;100.00;98616.44;5054110;28;20045;-92
2024/01/06 01:39:21;;;;;;;66.82;36.83;;;;;;;2.46;100.00;98626.78;5053921;28;20020;-93
2024/01/06 01:41:46;;;;;;;73.53;39.58;;;;;;;2.41;100.00;98618.38;5053847;28;20025;-93
2024/01/06 01:44:12;;;;;;;66.13;33.90;;;;;;;2.47;100.00;98611.28;5054202;28;20025;-93
2024/01/06 01:46:39;;;;;;;67.13;37.78;;;;;;;2.51;100.00;98617.19;5053626;28;20060;-93
2024/01/06 01:49:05;;;;;;;78.43;40.55;;;;;;;2.53;100.00;98615.44;5054051;28;20426;-93
2024/01/06 01:51:34;;;;;;;71.00;37.10;;;;;;;2.54;100.00;98622.25;5054077;28;20029;-93
2024/01/06 01:54:02;;;;;;;65.13;34.22;;;;;;;2.54;100.00;98618.84;5054092;28;20016;-93
2024/01/06 01:56:33;;;;;;;62.60;36.08;;;;;;;2.43;100.00;98609.72;5053534;28;20430;-93
2024/01/06 01:59:00;;;;;;;;;;;;;;;2.45;100.00;98625.09;5054563;28;20387;-93
2024/01/06 02:01:26;;;;;;;58.13;32.33;;;;;;;2.49;100.00;98622.38;5053713;28;19916;-93
2024/01/06 02:03:52;;;;;;;65.20;33.45;;;;;;;2.43;100.00;98621.72;5053466;28;20027;-93
2024/01/06 02:06:18;;;;;;;61.88;32.85;;;;;;;2.40;100.00;98622.66;5053951;28;20029;-94
2024/01/06 02:08:43;;;;;;;56.38;30.67;;;;;;;2.38;100.00;98614.16;5052384;28;20379;-93
2024/01/06 02:11:09;;;;;;;62.08;32.30;;;;;;;2.41;100.00;98618.38;5053826;28;20021;-93
2024/01/06 02:13:36;;;;;;;57.88;32.47;;;;;;;2.29;100.00;98593.03;5053453;28;20028;-93
2024/01/06 02:16:05;;;;;;;59.28;33.40;;;;;;;2.46;100.00;98614.75;5053086;28;20361;-93
2024/01/06 02:18:32;;;;;;;58.13;30.63;;;;;;;2.35;100.00;98587.69;5052951;28;20062;-93
2024/01/06 02:20:59;;;;;;;59.72;32.03;;;;;;;2.42;100.00;98602.06;5053264;28;20373;-93
2024/01/06 02:23:26;;;;;;;57.83;32.25;;;;;;;2.43;100.00;98603.72;5053456;28;20024;-93
2024/01/06 02:25:52;;;;;;;56.75;30.85;;;;;;;2.41;100.00;98605.53;5052773;28;20028;-92
2024/01/06 02:28:17;;;;;;;55.15;33.45;;;;;;;2.47;100.00;98600.19;5053342;28;20017;-93
2024/01/06 02:30:43;;;;;;;57.33;34.55;;;;;;;2.44;100.00;98595.13;5053240;28;20078;-93
2024/01/06 02:33:09;;;;;;;54.40;32.90;;;;;;;2.48;100.00;98594.97;5053076;28;20047;-93
2024/01/06 02:35:35;;;;;;;62.50;35.33;;;;;;;2.53;100.00;98589.72;5053073;28;20053;-92
2024/01/06 02:38:01;;;;;;;64.72;33.47;;;;;;;2.57;100.00;98593.88;5053183;28;20050;-93
2024/01/06 02:40:26;;;;;;;90.15;50.30;;;;;;;2.52;100.00;98600.88;5052985;28;20020;-93
2024/01/06 02:42:52;;;;;;;73.05;41.97;;;;;;;2.53;100.00;98592.28;5052630;28;20025;-92
2024/01/06 02:45:18;;;;;;;65.22;36.78;;;;;;;2.47;100.00;98588.16;5052925;28;20055;-93
2024/01/06 02:47:43;;;;;;;61.80;34.40;;;;;;;2.47;100.00;98589.91;5052943;28;20027;-93
2024/01/06 02:50:09;;;;;;;60.22;33.53;;;;;;;2.43;100.00;98583.16;5052998;28;20368;-92
2024/01/06 02:52:35;;;;;;;58.67;33.38;;;;;;;2.35;100.00;98582.56;5052555;28;20086;-92
2024/01/06 02:55:03;;;;;;;53.88;31.98;;;;;;;2.33;100.00;98599.78;5052924;28;20414;-91
2024/01/06 02:57:30;;;;;;;62.58;32.22;;;;;;;2.22;100.00;98595.78;5052635;28;20057;-92
2024/01/06 02:59:56;;;;;;;57.05;32.45;;;;;;;2.10;100.00;98583.28;5052663;28;20028;-92
2024/01/06 03:02:22;;;;;;;59.70;31.45;;;;;;;2.13;100.00;98598.63;5052464;28;20045;-92
2024/01/06 03:04:48;;;;;;;57.10;31.85;;;;;;;2.13;100.00;98611.47;5071086;28;20433;-91
2024/01/06 03:07:14;;;;;;;59.33;32.38;;;;;;;2.14;100.00;98605.44;5054743;28;20029;-91
2024/01/06 03:09:39;;;;;;;56.00;29.63;;;;;;;2.14;100.00;98608.00;5071082;28;20150;-92
2024/01/06 03:12:07;;;;;;;53.03;30.73;;;;;;;2.13;100.00;98606.31;5054938;28;20028;-92
2024/01/06 03:14:34;;;;;;;52.80;29.73;;;;;;;2.12;100.00;98609.78;5054515;28;20490;-92
2024/01/06 03:17:00;;;;;;;58.22;29.80;;;;;;;2.09;100.00;98609.88;5054474;28;20029;-94
2024/01/06 03:19:27;;;;;;;54.72;30.65;;;;;;;2.04;100.00;98600.63;5054258;28;20036;-94
2024/01/06 03:21:53;;;;;;;50.38;27.45;;;;;;;2.03;100.00;98610.06;5054632;28;20369;-92
2024/01/06 03:24:19;;;;;;;59.28;31.52;;;;;;;1.89;100.00;98577.03;5054657;28;20446;-93
2024/01/06 03:26:45;;;;;;;79.57;45.47;;;;;;;2.03;100.00;98604.09;5053984;28;20147;-93
2024/01/06 03:29:11;;;;;;;66.38;38.67;;;;;;;2.00;100.00;98599.88;5071184;28;20025;-93
2024/01/06 03:31:37;;;;;;;59.78;33.78;;;;;;;2.07;100.00;98601.38;5054250;28;20024;-94
2024/01/06 03:34:02;;;;;;;62.97;33.20;;;;;;;2.07;100.00;98613.38;5054567;28;20027;-93
2024/01/06 03:36:28;;;;;;;84.55;46.17;;;;;;;2.04;100.00;98627.16;5051627;28;20388;-92
2024/01/06 03:38:54;;;;;;;64.15;36.47;;;;;;;2.08;100.00;98617.63;5051683;28;20436;-92
2024/01/06 03:41:19;;;;;;;56.08;31.33;;;;;;;2.01;100.00;98609.25;5051785;28;20029;-93
2024/01/06 03:43:45;;;;;;;57.92;30.50;;;;;;;2.10;100.00;98637.22;5051710;28;20052;-92
2024/01/06 03:46:10;;;;;;;49.00;28.63;;;;;;;2.12;100.00;98637.22;5051748;28;20372;-92
2024/01/06 03:48:36;;;;;;;54.35;29.52;;;;;;;2.11;100.00;98643.22;5070332;28;20035;-92
2024/01/06 03:51:02;;;;;;;57.55;30.98;;;;;;;2.06;100.00;98627.09;5054189;28;20063;-92
2024/01/06 03:53:28;;;;;;;53.28;28.75;;;;;;;2.19;100.00;98646.41;5053751;28;20031;-92
2024/01/06 03:55:53;;;;;;;55.45;29.90;;;;;;;2.25;100.00;98666.78;5053292;28;20033;-91
2024/01/06 03:58:19;;;;;;;52.30;28.98;;;;;;;2.28;100.00;98668.44;5053640;28;20020;-92
2024/01/06 04:00:44;;;;;;;61.38;30.98;;;;;;;2.35;100.00;98667.34;5053289;28;20123;-91
2024/01/06 04:03:10;;;;;;;50.92;30.10;;;;;;;2.33;100.00;98661.44;5053634;28;20411;-93
2024/01/06 04:05:36;;;;;;;51.97;29.10;;;;;;;2.18;100.00;98645.56;5053493;28;20507;-92
2024/01/06 04:08:01;;;;;;;53.55;29.05;;;;;;;2.29;100.00;98657.28;5070380;28;20024;-92
2024/01/06 04:10:27;;;;;;;51.88;28.77;;;;;;;2.24;100.00;98672.81;5053482;28;20051;-93
2024/01/06 04:12:52;;;;;;;51.10;27.95;;;;;;;2.18;100.00;98665.28;5053484;28;20024;-93
2024/01/06 04:15:18;;;;;;;57.30;31.05;;;;;;;2.24;100.00;98663.38;5053560;28;20082;-92
2024/01/06 04:17:48;;;;;;;50.38;27.92;;;;;;;2.26;100.00;98658.19;5053320;28;20017;-90
2024/01/06 04:20:13;;;;;;;48.58;28.60;;;;;;;2.17;100.00;98655.88;5053642;28;20040;-93
2024/01/06 04:22:39;;;;;;;55.83;27.88;;;;;;;2.15;100.00;98666.22;5053074;28;20020;-93
2024/01/06 04:25:05;;;;;;;48.97;28.70;;;;;;;1.99;100.00;98658.09;5051570;28;20036;-92
2024/01/06 04:27:31;;;;;;;55.78;30.40;;;;;;;1.92;100.00;98661.72;5051377;28;20108;-93
2024/01/06 04:29:56;;;;;;;54.88;29.52;;;;;;;1.75;100.00;98639.06;5051338;28;20067;-92
2024/01/06 04:32:22;;;;;;;53.47;28.60;;;;;;;1.97;100.00;98666.72;5052832;28;20028;-93
2024/01/06 04:34:48;;;;;;;52.28;28.90;;;;;;;1.99;100.00;98652.97;5054645;28;20445;-92
2024/01/06 04:37:14;;;;;;;49.63;28.13;;;;;;;2.00;100.00;98657.19;5054623;28;20058;-92
2024/01/06 04:39:40;;;;;;;52.50;29.00;;;;;;;1.96;100.00;98660.75;5054966;28;20460;-92
2024/01/06 04:42:06;;;;;;;63.60;32.10;;;;;;;1.90;100.00;98658.34;5055507;28;20140;-92
2024/01/06 04:44:31;;;;;;;57.47;30.00;;;;;;;1.98;100.00;98668.38;5055725;28;20029;-92
2024/01/06 04:46:57;;;;;;;55.42;27.80;;;;;;;2.00;100.00;98657.19;5055351;28;20017;-92
2024/01/06 04:49:23;;;;;;;54.78;28.98;;;;;;;1.99;100.00;98654.69;5055571;28;20063;-92
2024/01/06 04:51:48;;;;;;;52.33;28.98;;;;;;;1.92;100.00;98664.28;5055585;28;20021;-92
2024/01/06 04:54:14;;;;;;;48.92;27.80;;;;;;;1.84;100.00;98662.81;5067475;28;20025;-93
2024/01/06 04:56:39;;;;;;;49.95;27.08;;;;;;;1.88;100.00;98662.69;5065959;28;20460;-92
2024/01/06 04:59:06;;;;;;;45.00;25.67;;;;;;;1.93;100.00;98670.25;5065559;28;20024;-92
2024/01/06 05:01:32;;;;;;;51.97;28.77;;;;;;;1.94;100.00;98661.69;5058638;28;20118;-93
2024/01/06 05:03:58;;;;;;;49.78;26.63;;;;;;;1.85;100.00;98670.44;5054199;28;20063;-91
2024/01/06 05:06:25;;;;;;;49.03;26.40;;;;;;;1.84;100.00;98670.50;5054349;28;20104;-92
2024/01/06 05:08:50;;;;;;;51.72;26.95;;;;;;;1.88;100.00;98667.81;5054272;28;20048;-92
2024/01/06 05:11:16;;;;;;;52.45;27.38;;;;;;;1.81;100.00;98661.16;5054365;28;20064;-93
2024/01/06 05:13:41;;;;;;;48.42;27.77;;;;;;;1.85;100.00;98678.16;5054237;28;20021;-91
2024/01/06 05:16:08;;;;;;;48.38;26.60;;;;;;;1.88;100.00;98680.66;5073169;28;20068;-91
2024/01/06 05:18:34;;;;;;;54.97;28.15;;;;;;;1.90;100.00;98684.03;5056196;28;20040;-92
2024/01/06 05:21:00;;;;;;;51.95;28.10;;;;;;;1.86;100.00;98682.44;5055919;28;20427;-92
2024/01/06 05:23:26;;;;;;;51.08;26.25;;;;;;;1.80;100.00;98687.72;5056488;28;20463;-90
2024/01/06 05:25:51;;;;;;;53.13;28.52;;;;;;;1.78;100.00;98694.63;5055927;28;20077;-93
2024/01/06 05:28:17;;;;;;;49.03;26.02;;;;;;;1.81;100.00;98688.53;5052862;28;20061;-93
2024/01/06 05:30:43;;;;;;;48.60;25.67;;;;;;;1.78;100.00;98706.63;5036185;28;20048;-92
2024/01/06 05:33:15;;;;;;;49.35;28.40;;;;;;;1.83;100.00;98700.47;5036323;28;20040;-92
2024/01/06 05:35:41;;;;;;;50.42;26.63;;;;;;;1.90;100.00;98699.44;5035734;28;20029;-92
2024/01/06 05:38:07;;;;;;;45.75;25.88;;;;;;;1.83;100.00;98712.47;5036192;28;20059;-93
2024/01/06 05:40:32;;;;;;;48.28;25.55;;;;;;;1.90;100.00;98717.41;5036103;28;20510;-93
2024/01/06 05:42:58;;;;;;;50.00;26.77;;;;;;;1.88;100.00;98719.16;5035465;28;20044;-93
2024/01/06 05:45:23;;;;;;;47.78;24.83;;;;;;;1.89;100.00;98718.28;5035950;28;20086;-93
2024/01/06 05:47:49;;;;;;;45.20;25.60;;;;;;;1.90;100.00;98717.41;5035514;28;20128;-93
2024/01/06 05:50:16;;;;;;;48.78;26.08;;;;;;;1.65;100.00;98677.88;5035927;28;20025;-92
2024/01/06 05:52:42;;;;;;;49.22;26.65;;;;;;;1.87;100.00;98724.34;5035514;28;20029;-92
2024/01/06 05:55:08;;;;;;;48.47;26.42;;;;;;;1.76;100.00;98722.03;5035420;28;20029;-93
2024/01/06 05:57:34;;;;;;;49.38;26.02;;;;;;;1.77;100.00;98725.44;5035270;28;20082;-91
2024/01/06 06:00:00;;;;;;;45.00;26.42;;;;;;;1.76;100.00;98727.19;5035326;28;20037;-93
2024/01/06 06:02:25;;;;;;;43.20;25.63;;;;;;;1.73;100.00;98735.81;5035458;28;20053;-92
2024/01/06 06:04:52;;;;;;;47.85;26.25;;;;;;;1.68;100.00;98726.53;5035551;28;20043;-93
2024/01/06 06:07:18;;;;;;;53.50;28.73;;;;;;;1.67;100.00;98738.53;5052806;28;20079;-93
2024/01/06 06:09:47;;;;;;;50.95;28.63;;;;;;;1.61;100.00;98746.41;5053127;28;20430;-92
2024/01/06 06:12:13;;;;;;;50.38;27.80;;;;;;;1.52;100.00;98743.19;5053197;28;20055;-92
2024/01/06 06:14:38;;;;;;;49.90;26.63;;;;;;;1.52;100.00;98753.44;5053104;28;20079;-93
2024/01/06 06:17:04;;;;;;;50.67;27.30;;;;;;;1.45;100.00;98750.22;5052929;28;20412;-93
2024/01/06 06:19:30;;;;;;;46.08;26.52;;;;;;;1.47;100.00;98741.56;5052920;28;20033;-92
2024/01/06 06:21:55;;;;;;;45.97;26.83;;;;;;;1.55;100.00;98750.81;5052663;28;20090;-93
2024/01/06 06:24:21;;;;;;;51.85;27.60;;;;;;;1.54;100.00;98755.13;5052757;28;20021;-92
2024/01/06 06:26:46;;;;;;;50.00;26.92;;;;;;;1.50;100.00;98744.06;5052569;28;20025;-93
2024/01/06 06:29:12;;;;;;;40.38;24.15;;;;;;;1.65;100.00;98767.69;5071503;28;20035;-92
2024/01/06 06:31:38;;;;;;;41.45;25.20;;;;;;;1.64;100.00;98773.69;5054812;28;20617;-92
2024/01/06 06:34:04;;;;;;;47.83;26.65;;;;;;;1.59;100.00;98771.25;5054741;28;20414;-92
2024/01/06 06:36:30;;;;;;;41.03;24.45;;;;;;;1.40;100.00;98759.75;5054796;28;20025;-93
2024/01/06 06:38:58;;;;;;;47.17;25.63;;;;;;;1.53;100.00;98784.22;5054935;28;20152;-93
2024/01/06 06:41:24;;;;;;;42.97;25.73;;;;;;;1.59;100.00;98785.78;5055165;28;20107;-94
2024/01/06 06:43:50;;;;;;;47.70;25.48;;;;;;;1.51;100.00;98773.16;5055290;28;20497;-94
2024/01/06 06:46:16;;;;;;;50.17;25.73;;;;;;;1.64;100.00;98779.66;5055256;28;20059;-93
2024/01/06 06:48:42;;;;;;;45.30;26.35;;;;;;;1.63;100.00;98785.69;5055019;28;20533;-93
2024/01/06 06:51:07;;;;;;;47.90;26.35;;;;;;;1.61;100.00;98792.59;5055241;28;20033;-93
2024/01/06 06:53:33;;;;;;;49.08;27.83;;;;;;;1.65;100.00;98795.94;5051427;28;20113;-93
2024/01/06 06:55:59;;;;;;;46.95;26.80;;;;;;;1.49;100.00;98762.94;5034591;28;20056;-92
2024/01/06 06:58:24;;;;;;;47.92;26.80;;;;;;;1.71;100.00;98788.06;5034887;28;20071;-94
2024/01/06 07:00:50;;;;;;;44.05;26.23;;;;;;;1.74;100.00;98785.44;5034542;28;20120;-94
2024/01/06 07:03:16;;;;;;;43.80;25.98;;;;;;;1.73;100.00;98788.88;5034820;28;20071;-93
2024/01/06 07:05:41;;;;;;;45.33;26.05;;;;;;;1.71;100.00;98799.19;5034747;28;20380;-94
2024/01/06 07:08:07;;;;;;;45.63;26.75;;;;;;;1.70;100.00;98802.63;5034843;28;20384;-93
2024/01/06 07:10:33;;;;;;;46.83;26.60;;;;;;;1.69;100.00;98803.53;5034985;28;20077;-94
2024/01/06 07:12:58;;;;;;;45.53;26.33;;;;;;;1.69;100.00;98807.81;5034772;28;20076;-94
2024/01/06 07:15:24;;;;;;;40.30;23.67;;;;;;;1.66;100.00;98806.16;5036184;28;20128;-95
2024/01/06 07:17:50;;;;;;;44.10;25.10;;;;;;;1.60;100.00;98805.44;5035517;28;20067;-93
2024/01/06 07:20:15;;;;;;;45.47;24.30;;;;;;;1.57;100.00;98813.25;5035104;28;20115;-93
2024/01/06 07:22:41;;;;;;;44.00;25.00;;;;;;;1.50;100.00;98802.25;5035305;28;20423;-93
2024/01/06 07:25:07;;;;;;;46.85;26.08;;;;;;;1.64;100.00;98814.75;5047594;28;20094;-92
2024/01/06 07:27:33;;;;;;;43.83;24.65;;;;;;;1.71;100.00;98818.88;5052635;28;20025;-93
2024/01/06 07:29:58;;;;;;;43.53;25.02;;;;;;;1.66;100.00;98820.72;5053097;28;20352;-92
2024/01/06 07:32:24;;;;;;;41.33;24.88;;;;;;;1.62;100.00;98813.97;5053263;28;20059;-93
2024/01/06 07:34:50;;;;;;;42.58;24.83;;;;;;;1.67;100.00;98827.53;5052812;28;20032;-92
2024/01/06 07:37:16;;;;;;;47.97;27.08;;;;;;;1.69;100.00;98829.19;5053226;28;20028;-92
2024/01/06 07:39:41;;;;;;;50.10;29.70;;;;;;;1.52;100.00;98800.53;5052681;28;20364;-92
2024/01/06 07:42:07;;;;;;;61.15;32.60;;;;;;;1.71;100.00;98831.72;5052570;28;20025;-93
2024/01/06 07:44:33;;;;;;;47.15;28.42;;;;;;;1.63;100.00;98818.22;5052424;28;20104;-93
2024/01/06 07:47:01;;;;;;;53.03;31.05;;;;;;;1.72;100.00;98830.81;5071364;28;20093;-93
2024/01/06 07:49:27;;;;;;;53.03;28.42;;;;;;;1.72;100.00;98838.53;5054007;28;20067;-91
2024/01/06 07:51:53;;;;;;;49.50;28.65;;;;;;;1.74;100.00;98845.31;5053765;28;20040;-91
2024/01/06 07:54:18;;;;;;;47.97;27.92;;;;;;;1.69;100.00;98848.88;5053894;28;20112;-93
2024/01/06 07:56:44;;;;;;;49.88;27.48;;;;;;;1.65;100.00;98854.97;5053753;28;20043;-90
2024/01/06 07:59:10;;;;;;;45.63;27.13;;;;;;;1.38;100.00;98826.47;5069929;28;20377;-90
2024/01/06 08:01:36;;;;;;;51.47;27.33;;;;;;;1.46;100.00;98846.84;5053009;28;20048;-91
2024/01/06 08:04:01;;;;;;;50.15;27.55;;;;;;;1.54;100.00;98868.03;5069702;28;20020;-89
2024/01/06 08:06:27;;;;;;;50.97;28.20;;;;;;;1.52;100.00;98856.97;5072087;28;20459;-89
2024/01/06 08:08:52;;;;;;;45.85;27.25;;;;;;;1.56;100.00;98853.47;5073186;28;20020;-90
2024/01/06 08:11:18;;;;;;;59.90;31.67;;;;;;;1.67;100.00;98868.59;5073828;28;20174;-91
2024/01/06 08:13:43;;;;;;;56.55;32.35;;;;;;;1.53;100.00;98858.66;5075398;28;20101;-90
2024/01/06 08:16:09;;;;;;;54.88;28.95;;;;;;;1.67;100.00;98877.13;5074932;28;20119;-91
2024/01/06 08:18:34;;;;;;;50.42;28.75;;;;;;;1.57;100.00;98878.25;5057706;28;20035;-89
2024/01/06 08:21:00;;;;;;;47.35;27.73;;;;;;;1.48;100.00;98878.44;5074006;28;20112;-91
2024/01/06 08:23:25;;;;;;;52.58;29.83;;;;;;;1.47;100.00;98887.84;5055153;28;20078;-90
2024/01/06 08:25:51;;;;;;;52.35;30.83;;;;;;;1.33;100.00;98889.88;5055080;28;20384;-91
2024/01/06 08:28:18;;;;;;;52.78;28.98;;;;;;;1.32;100.00;98880.50;5053997;28;20024;-88
2024/01/06 08:30:44;;;;;;;50.75;28.65;;;;;;;1.21;100.00;98879.88;5054114;28;20033;-89
2024/01/06 08:33:09;;;;;;;52.35;30.98;;;;;;;1.21;100.00;98882.44;5053939;28;20021;-90
2024/01/06 08:35:40;;;;;;;49.55;27.73;;;;;;;1.38;100.00;98905.16;5071009;28;20144;-89
2024/01/06 08:38:08;;;;;;;43.17;25.88;;;;;;;1.53;100.00;98919.41;5072371;28;20055;-89
2024/01/06 08:40:34;;;;;;;56.38;29.05;;;;;;;1.52;100.00;98904.88;5056073;28;20051;-89
2024/01/06 08:43:00;;;;;;;49.72;29.63;;;;;;;1.63;100.00;98923.44;5072923;28;20029;-90
2024/01/06 08:45:25;;;;;;;48.05;27.85;;;;;;;1.50;100.00;98900.63;5053343;28;20044;-89
2024/01/06 08:47:50;;;;;;;48.47;27.38;;;;;;;1.63;100.00;98919.16;5052703;28;20403;-90
2024/01/06 08:50:16;;;;;;;49.63;29.15;;;;;;;1.64;100.00;98920.00;5052483;28;20029;-89
2024/01/06 08:52:41;;;;;;;53.95;30.13;;;;;;;1.63;100.00;98913.19;5052376;28;20112;-90
2024/01/06 08:55:07;;;;;;;49.83;28.48;;;;;;;1.58;100.00;98913.28;5052169;28;20119;-88
2024/01/06 08:57:32;;;;;;;55.10;30.35;;;;;;;1.57;100.00;98926.16;5052301;28;20521;-89
2024/01/06 08:59:58;;;;;;;47.70;27.35;;;;;;;1.45;100.00;98897.31;5052350;28;20136;-89
2024/01/06 09:02:24;;;;;;;51.58;27.67;;;;;;;1.48;100.00;98902.38;5052863;28;20049;-90
2024/01/06 09:04:49;;;;;;;52.45;28.83;;;;;;;1.69;100.00;98924.16;5052474;28;20553;-90
2024/01/06 09:07:17;;;;;;;47.75;28.17;;;;;;;1.57;100.00;98932.13;5052348;28;20036;-89
2024/01/06 09:09:43;;;;;;;46.78;28.25;;;;;;;1.53;100.00;98945.06;5052438;28;20048;-90
2024/01/06 09:12:08;;;;;;;52.88;28.83;;;;;;;1.46;100.00;98941.78;5052337;28;20067;-90
2024/01/06 09:14:33;;;;;;;54.78;31.42;;;;;;;1.52;100.00;98956.19;5052086;28;20033;-90
2024/01/06 09:16:59;;;;;;;58.80;34.20;;;;;;;1.58;100.00;98961.22;5037253;28;20037;-90
2024/01/06 09:19:28;;;;;;;91.82;51.15;;;;;;;1.54;100.00;98945.03;5015602;28;20091;-90
2024/01/06 09:21:54;;;;;;;70.80;41.08;;;;;;;1.57;100.00;98965.50;5015752;28;20564;-89
2024/01/06 09:24:20;;;;;;;74.75;42.03;;;;;;;1.60;100.00;98962.88;5030410;28;20124;-89
2024/01/06 09:26:45;;;;;;;66.40;38.03;;;;;;;1.50;100.00;98966.50;5032083;28;20459;-89
2024/01/06 09:29:10;;;;;;;73.85;44.70;;;;;;;1.34;100.00;98953.13;5015472;28;20137;-89
2024/01/06 09:31:36;;;;;;;67.05;39.35;;;;;;;1.43;100.00;98975.19;5015533;28;20033;-89
2024/01/06 09:34:02;;;;;;;80.18;37.47;;;;;;;1.25;100.00;98938.78;5015164;28;20035;-89
2024/01/06 09:36:28;;;;;;;64.78;33.58;;;;;;;1.30;100.00;98955.78;5015626;28;20476;-89
2024/01/06 09:38:53;;;;;;;70.28;35.00;;;;;;;1.28;100.00;98970.38;5032000;28;20040;-89
2024/01/06 09:41:20;;;;;;;57.38;31.13;;;;;;;1.16;100.00;98972.31;5029820;28;20091;-90
2024/01/06 09:43:45;;;;;;;53.47;29.35;;;;;;;1.10;100.00;98976.72;5051912;28;20108;-90
2024/01/06 09:46:27;;;;;;;54.63;31.00;;;;;;;1.10;100.00;98987.81;5051522;28;20028;-90
2024/01/06 09:48:54;;;;;;;65.78;32.88;;;;;;;1.02;100.00;98963.19;5035135;28;20029;-89
2024/01/06 09:51:23;;;;;;;49.60;29.05;;;;;;;1.16;100.00;98985.13;5051072;28;20044;-88
2024/01/06 09:54:00;;;;;;;51.20;29.67;;;;;;;1.19;100.00;98979.94;5034791;28;20357;-88
2024/01/06 09:56:29;;;;;;;48.47;30.15;;;;;;;1.15;100.00;98965.50;5051178;28;20083;-89
2024/01/06 09:58:57;;;;;;;61.55;33.72;;;;;;;1.15;100.00;98980.88;5070920;28;20553;-89
2024/01/06 10:01:22;;;;;;;50.83;30.73;;;;;;;1.10;100.00;98972.44;5054404;28;20040;-89
2024/01/06 10:03:48;;;;;;;82.55;44.70;;;;;;;1.10;100.00;98963.91;5071067;28;20051;-88
2024/01/06 10:06:17;;;;;;;67.55;38.42;;;;;;;1.04;100.00;98977.66;5070740;28;20122;-89
2024/01/06 10:08:44;;;;;;;86.25;42.15;;;;;;;1.12;100.00;98978.38;5071189;28;20020;-88
2024/01/06 10:11:10;;;;;;;77.13;38.38;;;;;;;1.18;100.00;98982.53;5054029;28;20086;-88
2024/01/06 10:13:41;;;;;;;73.03;38.65;;;;;;;1.28;100.00;98985.78;5054226;28;20036;-88
2024/01/06 10:16:08;;;;;;;70.38;38.72;;;;;;;1.31;100.00;98988.28;5054204;28;20119;-88
2024/01/06 10:18:35;;;;;;;78.18;42.40;;;;;;;1.33;100.00;98987.38;5054799;28;20025;-89
2024/01/06 10:21:05;;;;;;;75.13;38.90;;;;;;;1.08;100.00;98956.22;5070584;28;20394;-88
2024/01/06 10:23:33;;;;;;;78.07;43.70;;;;;;;1.21;100.00;98996.13;5021423;28;20082;-89
2024/01/06 10:26:00;;;;;;;88.50;47.78;;;;;;;1.22;100.00;98995.28;5053991;28;20063;-89
2024/01/06 10:28:26;;;;;;;101.35;53.83;;;;;;;1.06;100.00;98955.41;5070457;28;20021;-90
2024/01/06 10:30:53;;;;;;;84.47;45.78;;;;;;;1.29;100.00;98987.47;5070665;28;20035;-91
2024/01/06 10:33:20;;;;;;;71.03;43.85;;;;;;;1.20;100.00;98980.78;5054032;28;20501;-89
2024/01/06 10:35:55;;;;;;;77.80;47.58;;;;;;;1.18;100.00;98977.41;5051677;28;20079;-89
2024/01/06 10:38:21;;;;;;;84.97;45.50;;;;;;;1.24;100.00;98982.41;5053940;28;20126;-90
2024/01/06 10:41:00;;;;;;;83.30;47.58;;;;;;;1.08;100.00;98952.81;5070619;28;20436;-83
2024/01/06 10:43:30;;;;;;;76.00;42.60;;;;;;;1.08;100.00;98950.25;5030525;28;20033;-89
2024/01/06 10:45:57;;;;;;;87.10;47.40;;;;;;;1.15;100.00;98956.97;5030729;28;20033;-89
2024/01/06 10:48:26;;;;;;;91.53;51.10;;;;;;;1.29;100.00;98979.75;5015121;28;20091;-90
2024/01/06 10:50:53;;;;;;;84.05;44.50;;;;;;;1.14;100.00;98975.78;5014432;28;20030;-79
2024/01/06 10:53:20;;;;;;;88.50;46.70;;;;;;;1.10;100.00;98971.59;5030916;28;20684;-84
2024/01/06 10:55:48;;;;;;;85.53;48.63;;;;;;;1.07;100.00;98976.78;5031233;28;20469;-82
2024/01/06 10:58:17;;;;;;;83.68;46.53;;;;;;;1.08;100.00;98981.03;5030100;28;20040;-82
2024/01/06 11:00:43;;;;;;;87.88;49.42;;;;;;;1.05;100.00;98981.91;5030520;28;20031;-82
2024/01/06 11:03:10;;;;;;;87.07;49.13;;;;;;;0.69;100.00;98945.84;5030574;28;20029;-81
2024/01/06 11:05:39;;;;;;;96.30;51.15;;;;;;;0.82;100.00;98958.44;5031221;28;20080;-80
2024/01/06 11:08:07;;;;;;;109.35;51.92;;;;;;;0.78;100.00;98946.56;5014251;28;20022;-83
2024/01/06 11:10:36;;;;;;;92.30;49.30;;;;;;;0.93;100.00;98971.91;5048272;28;20127;-82
2024/01/06 11:13:20;;;;;;;100.10;54.40;;;;;;;1.00;100.00;98984.56;5014394;28;20523;-83